createdAt,value
2023-04-23T00:02:17.057Z,18.15
2023-04-23T00:04:54.502Z,19.90
2023-04-23T00:07:23.114Z,19.88
2023-04-23T00:09:56.517Z,18.40
2023-04-23T00:14:53.114Z,17.42
2023-04-23T00:17:21.375Z,18.42
2023-04-23T00:19:49.753Z,17.92
2023-04-23T00:22:18.114Z,17.20
2023-04-23T00:24:46.634Z,18.95
2023-04-23T00:27:14.928Z,19.20
2023-04-23T00:29:43.648Z,17.83
2023-04-23T00:32:11.932Z,19.02
2023-04-23T00:34:41.218Z,18.70
2023-04-23T00:37:09.756Z,18.27
2023-04-23T00:39:38.859Z,19.00
2023-04-23T00:42:12.448Z,17.50
2023-04-23T00:44:44.147Z,16.92
2023-04-23T00:47:13.021Z,18.38
2023-04-23T00:49:42.641Z,18.27
2023-04-23T00:52:10.869Z,18.17
2023-04-23T00:54:39.192Z,18.05
2023-04-23T00:57:08.144Z,18.92
2023-04-23T00:59:36.456Z,17.83
2023-04-23T01:02:05.558Z,17.83
2023-04-23T01:04:34.978Z,18.13
2023-04-23T01:07:03.964Z,16.92
2023-04-23T01:09:32.618Z,16.92
2023-04-23T01:12:02.576Z,16.85
2023-04-23T01:14:30.853Z,16.85
2023-04-23T01:16:59.517Z,17.33
2023-04-23T01:19:28.059Z,17.60
2023-04-23T01:22:01.148Z,17.17
2023-04-23T01:24:32.749Z,16.55
2023-04-23T01:27:01.782Z,17.52
2023-04-23T01:29:31.321Z,16.95
2023-04-23T01:32:00.531Z,16.38
2023-04-23T01:34:30.322Z,17.25
2023-04-23T01:36:59.476Z,18.05
2023-04-23T01:39:27.894Z,17.75
2023-04-23T01:41:57.388Z,17.83
2023-04-23T01:44:25.722Z,16.88
2023-04-23T01:46:54.633Z,17.08
2023-04-23T01:49:23.214Z,18.15
2023-04-23T01:51:51.633Z,18.42
2023-04-23T01:54:19.913Z,19.10
2023-04-23T01:56:54.802Z,18.38
2023-04-23T01:59:23.762Z,19.17
2023-04-23T02:01:52.170Z,18.25
2023-04-23T02:04:20.913Z,18.80
2023-04-23T02:06:51.116Z,19.88
2023-04-23T02:09:19.564Z,19.77
2023-04-23T02:11:48.266Z,20.33
2023-04-23T02:14:17.703Z,20.65
2023-04-23T02:16:47.497Z,19.05
2023-04-23T02:19:16.953Z,19.45
2023-04-23T02:21:45.353Z,18.90
2023-04-23T02:24:13.767Z,19.00
2023-04-23T02:26:42.097Z,19.45
2023-04-23T02:29:10.634Z,19.02
2023-04-23T02:31:38.901Z,18.70
2023-04-23T02:34:07.234Z,18.02
2023-04-23T02:36:36.651Z,18.67
2023-04-23T02:39:05.007Z,17.98
2023-04-23T02:41:33.273Z,19.00
2023-04-23T02:44:01.488Z,18.35
2023-04-23T02:46:29.821Z,19.02
2023-04-23T02:48:58.125Z,18.65
2023-04-23T02:51:26.477Z,18.85
2023-04-23T02:53:54.761Z,19.15
2023-04-23T02:56:23.088Z,18.73
2023-04-23T02:58:51.495Z,20.13
2023-04-23T03:01:20.487Z,19.38
2023-04-23T03:03:49.158Z,20.25
2023-04-23T03:06:18.067Z,20.40
2023-04-23T03:08:46.321Z,19.20
2023-04-23T03:11:14.739Z,19.33
2023-04-23T03:13:43.117Z,19.23
2023-04-23T03:16:11.676Z,20.23
2023-04-23T03:18:41.070Z,20.27
2023-04-23T03:21:09.318Z,21.73
2023-04-23T03:23:37.749Z,21.08
2023-04-23T03:26:06.100Z,20.50
2023-04-23T03:28:34.391Z,21.33
2023-04-23T03:31:02.691Z,20.67
2023-04-23T03:33:31.168Z,21.13
2023-04-23T03:35:59.407Z,20.13
2023-04-23T03:38:31.474Z,20.95
2023-04-23T03:41:00.953Z,21.65
2023-04-23T03:43:29.910Z,21.02
2023-04-23T03:46:06.945Z,21.30
2023-04-23T03:48:41.654Z,21.17
2023-04-23T03:51:19.502Z,21.98
2023-04-23T03:53:50.852Z,22.88
2023-04-23T03:56:31.017Z,21.27
2023-04-23T03:59:12.045Z,23.13
2023-04-23T04:01:40.412Z,22.25
2023-04-23T04:04:08.847Z,23.27
2023-04-23T04:06:37.304Z,22.48
2023-04-23T04:09:08.003Z,21.88
2023-04-23T04:11:36.902Z,23.77
2023-04-23T04:14:05.220Z,22.92
2023-04-23T04:16:33.658Z,21.73
2023-04-23T04:19:01.937Z,23.35
2023-04-23T04:21:30.207Z,22.25
2023-04-23T04:23:58.498Z,20.83
2023-04-23T04:26:26.718Z,22.27
2023-04-23T04:28:55.128Z,21.42
2023-04-23T04:31:23.423Z,20.83
2023-04-23T04:33:51.665Z,21.90
2023-04-23T04:36:19.913Z,22.73
2023-04-23T04:38:51.016Z,22.95
2023-04-23T04:41:22.642Z,21.88
2023-04-23T04:43:51.901Z,24.23
2023-04-23T04:46:20.844Z,22.48
2023-04-23T04:48:49.443Z,21.05
2023-04-23T04:51:17.901Z,20.50
2023-04-23T04:53:46.056Z,17.70
2023-04-23T04:56:14.201Z,20.05
2023-04-23T04:58:42.498Z,22.08
2023-04-23T05:01:10.976Z,20.52
2023-04-23T05:03:39.530Z,22.02
2023-04-23T05:06:07.938Z,20.48
2023-04-23T05:08:36.193Z,19.88
2023-04-23T05:11:04.537Z,20.10
2023-04-23T05:13:32.880Z,19.05
2023-04-23T05:16:01.420Z,20.15
2023-04-23T05:18:29.682Z,18.65
2023-04-23T05:20:58.160Z,19.30
2023-04-23T05:23:26.409Z,20.75
2023-04-23T05:25:56.757Z,20.38
2023-04-23T05:28:25.454Z,21.85
2023-04-23T05:30:53.632Z,20.05
2023-04-23T05:33:21.976Z,22.23
2023-04-23T05:35:50.357Z,20.60
2023-04-23T05:38:18.614Z,22.27
2023-04-23T05:40:46.971Z,19.70
2023-04-23T05:43:15.291Z,20.77
2023-04-23T05:45:43.947Z,22.80
2023-04-23T05:48:12.225Z,22.10
2023-04-23T05:50:40.489Z,22.60
2023-04-23T05:53:08.841Z,23.23
2023-04-23T05:55:37.084Z,22.73
2023-04-23T05:58:06.189Z,24.35
2023-04-23T06:00:35.591Z,22.67
2023-04-23T06:03:04.076Z,22.90
2023-04-23T06:05:32.421Z,23.27
2023-04-23T06:08:00.756Z,23.20
2023-04-23T06:10:28.960Z,23.05
2023-04-23T06:12:57.278Z,20.80
2023-04-23T06:15:27.262Z,22.30
2023-04-23T06:17:55.759Z,23.08
2023-04-23T06:20:24.061Z,22.90
2023-04-23T06:23:06.806Z,22.35
2023-04-23T06:25:35.036Z,22.15
2023-04-23T06:28:03.227Z,21.05
2023-04-23T06:30:36.821Z,21.45
2023-04-23T06:33:05.203Z,22.25
2023-04-23T06:35:33.408Z,22.25
2023-04-23T06:38:01.634Z,22.70
2023-04-23T06:40:30.012Z,23.42
2023-04-23T06:42:58.497Z,22.13
2023-04-23T06:45:56.430Z,24.17
2023-04-23T06:48:26.010Z,23.17
2023-04-23T06:50:54.365Z,24.33
2023-04-23T06:53:22.957Z,24.67
2023-04-23T06:55:51.481Z,24.83
2023-04-23T06:58:20.888Z,25.55
2023-04-23T07:00:49.172Z,22.80
2023-04-23T07:03:19.050Z,25.80
2023-04-23T07:05:47.314Z,24.95
2023-04-23T07:08:15.638Z,23.88
2023-04-23T07:10:43.991Z,26.50
2023-04-23T07:13:12.290Z,25.48
2023-04-23T07:15:41.584Z,25.50
2023-04-23T07:18:10.308Z,25.70
2023-04-23T07:20:38.823Z,25.70
2023-04-23T07:23:07.106Z,24.05
2023-04-23T07:25:35.338Z,23.67
2023-04-23T07:28:04.138Z,26.30
2023-04-23T07:30:32.535Z,24.20
2023-04-23T07:33:01.147Z,25.88
2023-04-23T07:35:29.577Z,25.63
2023-04-23T07:37:58.323Z,26.13
2023-04-23T07:40:26.653Z,21.92
2023-04-23T07:42:55.334Z,23.75
2023-04-23T07:45:23.591Z,25.05
2023-04-23T07:47:51.908Z,23.90
2023-04-23T07:50:20.360Z,23.65
2023-04-23T07:52:48.664Z,24.20
2023-04-23T07:55:17.090Z,23.85
2023-04-23T07:57:45.461Z,22.90
2023-04-23T08:00:14.498Z,22.02
2023-04-23T08:02:42.870Z,22.67
2023-04-23T08:05:11.464Z,23.02
2023-04-23T08:07:40.014Z,23.48
2023-04-23T08:10:08.864Z,23.10
2023-04-23T08:12:37.187Z,21.95
2023-04-23T08:15:06.034Z,21.70
2023-04-23T08:17:41.580Z,22.75
2023-04-23T08:20:10.235Z,22.55
2023-04-23T08:22:38.459Z,22.35
2023-04-23T08:25:07.263Z,22.73
2023-04-23T08:27:35.645Z,22.45
2023-04-23T08:30:04.327Z,23.52
2023-04-23T08:32:32.594Z,23.58
2023-04-23T08:35:00.855Z,23.83
2023-04-23T08:37:31.351Z,22.88
2023-04-23T08:40:00.779Z,23.20
2023-04-23T08:42:57.393Z,24.58
2023-04-23T08:45:26.860Z,25.13
2023-04-23T08:48:02.375Z,25.77
2023-04-23T08:50:31.471Z,24.15
2023-04-23T08:53:00.785Z,25.33
2023-04-23T08:55:29.144Z,25.95
2023-04-23T08:57:59.591Z,25.38
2023-04-23T09:00:28.006Z,24.60
2023-04-23T09:02:57.272Z,23.17
2023-04-23T09:05:26.447Z,23.98
2023-04-23T09:07:55.419Z,23.35
2023-04-23T09:10:24.866Z,24.27
2023-04-23T09:12:53.214Z,22.95
2023-04-23T09:15:22.383Z,22.13
2023-04-23T09:17:51.256Z,21.35
2023-04-23T09:20:19.609Z,19.65
2023-04-23T09:22:55.303Z,20.40
2023-04-23T09:25:24.987Z,20.20
2023-04-23T09:27:54.068Z,21.02
2023-04-23T09:30:23.474Z,21.70
2023-04-23T09:32:53.042Z,20.02
2023-04-23T09:35:21.568Z,20.23
2023-04-23T09:37:52.882Z,19.33
2023-04-23T09:40:24.087Z,18.55
2023-04-23T09:42:54.686Z,17.65
2023-04-23T09:45:25.852Z,20.23
2023-04-23T09:48:00.309Z,19.55
2023-04-23T09:50:39.542Z,17.02
2023-04-23T09:53:09.725Z,16.35
2023-04-23T09:55:39.923Z,16.30
2023-04-23T09:58:12.890Z,15.07
2023-04-23T10:00:42.084Z,15.23
2023-04-23T10:03:11.943Z,14.90
2023-04-23T10:05:59.594Z,15.57
2023-04-23T10:08:31.916Z,16.80
2023-04-23T10:11:13.674Z,17.50
2023-04-23T10:13:48.327Z,16.35
2023-04-23T10:16:23.158Z,16.33
2023-04-23T10:18:55.413Z,15.95
2023-04-23T10:21:36.633Z,15.13
2023-04-23T10:24:20.208Z,15.85
2023-04-23T10:26:50.056Z,14.93
2023-04-23T10:29:19.501Z,15.25
2023-04-23T10:31:48.653Z,15.77
2023-04-23T10:34:17.521Z,13.93
2023-04-23T10:36:45.955Z,17.65
2023-04-23T10:39:27.297Z,18.70
2023-04-23T10:41:58.936Z,16.52
2023-04-23T10:44:57.932Z,16.10
2023-04-23T10:47:31.822Z,15.88
2023-04-23T10:50:24.867Z,16.27
2023-04-23T10:52:54.528Z,17.23
2023-04-23T10:55:28.493Z,14.52
2023-04-23T10:58:02.297Z,14.77
2023-04-23T11:00:51.668Z,17.50
2023-04-23T11:03:44.594Z,15.55
2023-04-23T11:06:19.149Z,14.52
2023-04-23T11:08:54.820Z,14.18
2023-04-23T11:11:40.467Z,15.88
2023-04-23T11:14:14.611Z,12.35
2023-04-23T11:16:43.423Z,13.80
2023-04-23T11:19:13.081Z,12.98
2023-04-23T11:22:04.708Z,12.18
2023-04-23T11:24:37.381Z,11.27
2023-04-23T11:27:11.590Z,12.35
2023-04-23T11:29:42.564Z,11.35
2023-04-23T11:32:14.221Z,11.27
2023-04-23T11:34:45.462Z,10.60
2023-04-23T11:37:15.577Z,10.07
2023-04-23T11:39:47.583Z,8.80
2023-04-23T11:42:17.394Z,8.73
2023-04-23T11:44:46.677Z,8.70
2023-04-23T11:47:19.186Z,9.32
2023-04-23T11:49:49.771Z,9.40
2023-04-23T11:52:18.105Z,9.00
2023-04-23T11:54:46.392Z,7.78
2023-04-23T11:57:14.671Z,8.48
2023-04-23T11:59:43.632Z,7.55
2023-04-23T12:02:12.305Z,6.85
2023-04-23T12:04:41.331Z,7.30
2023-04-23T12:07:19.662Z,7.85
2023-04-23T12:10:00.316Z,6.90
2023-04-23T12:12:36.124Z,6.18
2023-04-23T12:15:08.506Z,5.72
2023-04-23T12:17:36.819Z,6.17
2023-04-23T12:20:07.231Z,5.30
2023-04-23T12:22:35.727Z,5.43
2023-04-23T12:25:09.563Z,5.13
2023-04-23T12:27:42.644Z,5.72
2023-04-23T12:30:12.058Z,6.10
2023-04-23T12:32:41.467Z,5.60
2023-04-23T12:35:11.222Z,4.60
2023-04-23T12:37:39.662Z,5.07
2023-04-23T12:40:08.824Z,6.07
2023-04-23T12:42:37.491Z,4.93
2023-04-23T12:45:10.124Z,5.75
2023-04-23T12:47:38.436Z,5.10
2023-04-23T12:50:07.255Z,5.80
2023-04-23T12:52:35.560Z,6.07
2023-04-23T12:55:05.157Z,6.45
2023-04-23T12:57:33.517Z,5.38
2023-04-23T13:00:02.360Z,5.57
2023-04-23T13:02:31.281Z,5.43
2023-04-23T13:05:01.321Z,6.30
2023-04-23T13:07:29.776Z,5.93
2023-04-23T13:09:59.625Z,5.05
2023-04-23T13:12:28.171Z,5.65
2023-04-23T13:14:57.115Z,5.25
2023-04-23T13:17:26.504Z,5.95
2023-04-23T13:19:55.841Z,5.13
2023-04-23T13:22:28.415Z,5.47
2023-04-23T13:25:00.064Z,5.80
2023-04-23T13:27:29.339Z,5.60
2023-04-23T13:29:58.708Z,5.20
2023-04-23T13:32:31.935Z,5.25
2023-04-23T13:35:02.813Z,6.68
2023-04-23T13:37:31.848Z,6.53
2023-04-23T13:40:01.369Z,5.93
2023-04-23T13:42:29.593Z,5.63
2023-04-23T13:44:57.821Z,6.20
2023-04-23T13:47:31.369Z,6.60
2023-04-23T13:50:03.214Z,4.85
2023-04-23T13:52:31.912Z,6.05
2023-04-23T13:55:02.782Z,5.80
2023-04-23T13:57:31.373Z,6.05
2023-04-23T14:00:00.703Z,6.03
2023-04-23T14:02:28.987Z,5.50
2023-04-23T14:04:58.462Z,5.40
2023-04-23T14:07:26.842Z,4.85
2023-04-23T14:09:55.085Z,6.30
2023-04-23T14:12:24.268Z,5.93
2023-04-23T14:14:52.573Z,7.30
2023-04-23T14:17:20.780Z,6.00
2023-04-23T14:19:49.186Z,5.20
2023-04-23T14:22:17.490Z,5.68
2023-04-23T14:24:50.017Z,6.07
2023-04-23T14:27:18.305Z,5.30
2023-04-23T14:30:13.723Z,6.07
2023-04-23T14:32:43.171Z,5.30
2023-04-23T14:35:12.591Z,5.50
2023-04-23T14:37:44.852Z,4.93
2023-04-23T14:40:15.913Z,4.57
2023-04-23T14:42:45.639Z,5.55
2023-04-23T14:45:14.838Z,5.10
2023-04-23T14:47:48.259Z,5.45
2023-04-23T14:52:49.321Z,5.45
2023-04-23T14:55:18.017Z,4.75
2023-04-23T14:57:46.385Z,5.28
2023-04-23T15:00:15.519Z,4.75
2023-04-23T15:02:47.430Z,5.00
2023-04-23T15:05:16.723Z,4.32
2023-04-23T15:07:45.021Z,4.50
2023-04-23T15:10:13.826Z,4.68
2023-04-23T15:13:08.392Z,4.30
2023-04-23T15:15:49.587Z,4.22
2023-04-23T15:18:19.139Z,4.03
2023-04-23T15:20:47.394Z,4.70
2023-04-23T15:23:15.779Z,4.65
2023-04-23T15:25:44.092Z,4.80
2023-04-23T15:28:12.495Z,4.40
2023-04-23T15:30:43.397Z,5.18
2023-04-23T15:33:12.056Z,5.18
2023-04-23T15:35:40.296Z,4.78
2023-04-23T15:38:08.529Z,5.72
2023-04-23T15:43:28.103Z,5.50
2023-04-23T15:45:58.739Z,5.50
2023-04-23T15:48:27.574Z,5.88
2023-04-23T15:50:55.868Z,4.80
2023-04-23T15:53:24.122Z,5.00
2023-04-23T15:55:52.775Z,4.95
2023-04-23T15:58:22.078Z,5.30
2023-04-23T16:00:50.360Z,5.30
2023-04-23T16:03:18.858Z,5.35
2023-04-23T16:05:50.627Z,5.97
2023-04-23T16:08:18.967Z,5.35
2023-04-23T16:10:47.395Z,4.65
2023-04-23T16:13:15.607Z,4.32
2023-04-23T16:15:43.837Z,4.65
2023-04-23T16:18:12.119Z,3.90
2023-04-23T16:20:40.460Z,3.90
2023-04-23T16:23:08.627Z,3.92
2023-04-23T16:25:37.183Z,4.22
2023-04-23T16:28:05.538Z,3.75
2023-04-23T16:30:33.777Z,4.32
2023-04-23T16:33:02.112Z,4.35
2023-04-23T16:35:30.536Z,3.70
2023-04-23T16:37:58.800Z,3.72
2023-04-23T16:40:27.847Z,3.70
2023-04-23T16:42:56.090Z,3.40
2023-04-23T16:45:24.384Z,3.92
2023-04-23T16:47:52.658Z,3.90
2023-04-23T16:50:25.108Z,4.10
2023-04-23T16:52:53.707Z,4.18
2023-04-23T16:55:22.207Z,3.92
2023-04-23T16:57:50.463Z,3.95
2023-04-23T17:00:18.767Z,3.60
2023-04-23T17:02:47.116Z,4.15
2023-04-23T17:05:15.447Z,4.07
2023-04-23T17:07:44.079Z,4.63
2023-04-23T17:10:12.458Z,3.80
2023-04-23T17:12:40.806Z,3.92
2023-04-23T17:15:09.630Z,4.53
2023-04-23T17:17:38.525Z,4.38
2023-04-23T17:20:08.128Z,4.53
2023-04-23T17:22:36.345Z,4.00
2023-04-23T17:25:06.281Z,4.28
2023-04-23T17:27:34.494Z,3.67
2023-04-23T17:30:02.821Z,3.90
2023-04-23T17:32:31.189Z,4.20
2023-04-23T17:35:09.597Z,4.07
2023-04-23T17:37:39.177Z,3.67
2023-04-23T17:40:08.160Z,4.00
2023-04-23T17:42:36.580Z,4.85
2023-04-23T17:45:06.030Z,4.82
2023-04-23T17:47:34.329Z,4.60
2023-04-23T17:50:02.614Z,4.60
2023-04-23T17:52:31.441Z,5.50
2023-04-23T17:55:00.324Z,5.35
2023-04-23T17:57:28.513Z,6.13
2023-04-23T17:59:59.231Z,5.47
2023-04-23T18:02:27.818Z,6.28
2023-04-23T18:04:56.236Z,6.50
2023-04-23T18:07:24.587Z,6.82
2023-04-23T18:09:52.811Z,6.32
2023-04-23T18:12:21.047Z,5.82
2023-04-23T18:14:49.304Z,6.85
2023-04-23T18:17:17.574Z,6.63
2023-04-23T18:19:45.852Z,6.60
2023-04-23T18:22:14.073Z,6.38
2023-04-23T18:24:42.867Z,7.05
2023-04-23T18:27:11.405Z,6.97
2023-04-23T18:29:43.371Z,6.95
2023-04-23T18:32:20.916Z,6.97
2023-04-23T18:34:57.019Z,8.05
2023-04-23T18:37:43.790Z,7.95
2023-04-23T18:40:12.490Z,7.43
2023-04-23T18:42:40.707Z,7.88
2023-04-23T18:45:10.702Z,8.07
2023-04-23T18:47:50.553Z,7.47
2023-04-23T18:50:48.551Z,7.88
2023-04-23T18:53:16.834Z,7.93
2023-04-23T18:55:45.150Z,8.23
2023-04-23T18:58:13.469Z,8.45
2023-04-23T19:00:41.843Z,8.10
2023-04-23T19:03:23.490Z,9.57
2023-04-23T19:05:54.995Z,8.55
2023-04-23T19:08:28.403Z,9.18
2023-04-23T19:10:57.156Z,8.70
2023-04-23T19:13:25.468Z,8.85
2023-04-23T19:15:53.845Z,9.38
2023-04-23T19:18:23.004Z,9.38
2023-04-23T19:20:52.669Z,10.65
2023-04-23T19:23:21.006Z,10.05
2023-04-23T19:25:49.236Z,10.25
2023-04-23T19:28:17.585Z,10.25
2023-04-23T19:30:45.804Z,10.50
2023-04-23T19:33:14.049Z,9.05
2023-04-23T19:35:42.585Z,9.63
2023-04-23T19:38:11.070Z,11.45
2023-04-23T19:40:39.409Z,10.57
2023-04-23T19:43:07.843Z,9.30
2023-04-23T19:45:36.188Z,9.40
2023-04-23T19:48:04.847Z,9.18
2023-04-23T19:50:33.318Z,9.75
2023-04-23T19:53:01.722Z,10.02
2023-04-23T19:55:30.096Z,10.13
2023-04-23T19:57:58.793Z,9.75
2023-04-23T20:00:31.220Z,9.52
2023-04-23T20:03:00.808Z,10.48
2023-04-23T20:05:29.883Z,9.18
2023-04-23T20:08:00.207Z,9.07
2023-04-23T20:10:30.503Z,9.35
2023-04-23T20:12:59.819Z,8.68
2023-04-23T20:15:28.389Z,8.90
2023-04-23T20:17:56.659Z,9.18
2023-04-23T20:20:28.069Z,9.63
2023-04-23T20:22:56.383Z,10.15
2023-04-23T20:25:25.951Z,9.23
2023-04-23T20:27:57.176Z,9.40
2023-04-23T20:30:25.404Z,9.40
2023-04-23T20:32:53.714Z,9.23
2023-04-23T20:35:22.144Z,9.15
2023-04-23T20:37:52.126Z,9.52
2023-04-23T20:40:20.534Z,8.35
2023-04-23T20:42:51.654Z,8.70
2023-04-23T20:45:20.839Z,8.23
2023-04-23T20:47:50.261Z,9.38
2023-04-23T20:50:18.872Z,8.57
2023-04-23T20:52:47.192Z,8.80
2023-04-23T20:55:15.482Z,8.98
2023-04-23T20:57:43.799Z,7.78
2023-04-23T21:00:12.374Z,7.53
2023-04-23T21:02:41.636Z,6.97
2023-04-23T21:05:12.319Z,7.07
2023-04-23T21:07:40.826Z,7.13
2023-04-23T21:10:09.384Z,6.75
2023-04-23T21:12:38.033Z,7.28
2023-04-23T21:15:07.102Z,7.00
2023-04-23T21:17:35.611Z,6.57
2023-04-23T21:20:05.301Z,6.93
2023-04-23T21:22:33.586Z,6.18
2023-04-23T21:25:02.148Z,6.25
2023-04-23T21:27:33.760Z,6.18
2023-04-23T21:30:09.930Z,6.30
2023-04-23T21:32:38.945Z,10.80
2023-04-23T21:35:07.706Z,8.68
2023-04-23T21:37:37.446Z,9.13
2023-04-23T21:40:06.527Z,8.00
2023-04-23T21:42:35.403Z,7.07
2023-04-23T21:45:03.800Z,7.32
2023-04-23T21:47:32.292Z,6.70
2023-04-23T21:50:01.554Z,6.65
2023-04-23T21:52:30.213Z,7.50
2023-04-23T21:54:58.455Z,8.07
2023-04-23T21:57:26.731Z,9.27
2023-04-23T21:59:55.058Z,10.60
2023-04-23T22:02:23.508Z,10.23
2023-04-23T22:04:51.936Z,10.32
2023-04-23T22:07:20.829Z,8.20
2023-04-23T22:09:49.119Z,7.85
2023-04-23T22:12:17.352Z,8.15
2023-04-23T22:14:45.585Z,10.18
2023-04-23T22:17:13.866Z,9.55
2023-04-23T22:19:42.349Z,8.88
2023-04-23T22:22:10.915Z,8.75
2023-04-23T22:24:39.185Z,9.18
2023-04-23T22:27:07.513Z,9.35
2023-04-23T22:29:35.848Z,8.50
2023-04-23T22:32:04.159Z,8.98
2023-04-23T22:34:32.497Z,9.13
2023-04-23T22:37:00.991Z,9.18
2023-04-23T22:39:29.278Z,9.10
2023-04-23T22:41:57.479Z,8.57
2023-04-23T22:44:25.768Z,9.15
2023-04-23T22:46:54.082Z,7.72
2023-04-23T22:49:22.883Z,8.85
2023-04-23T22:51:51.276Z,9.07
2023-04-23T22:54:19.458Z,7.28
2023-04-23T22:56:47.901Z,8.15
2023-04-23T22:59:16.113Z,7.68
2023-04-23T23:01:44.448Z,7.70
2023-04-23T23:04:13.149Z,7.40
2023-04-23T23:06:46.325Z,7.22
2023-04-23T23:09:14.598Z,6.90
2023-04-23T23:11:42.862Z,7.50
2023-04-23T23:14:11.467Z,6.78
2023-04-23T23:16:39.855Z,7.13
2023-04-23T23:19:08.339Z,7.00
2023-04-23T23:21:36.627Z,6.93
2023-04-23T23:24:05.020Z,6.93
2023-04-23T23:26:33.271Z,6.85
2023-04-23T23:29:01.603Z,6.90
2023-04-23T23:31:29.990Z,7.55
2023-04-23T23:33:58.333Z,6.30
2023-04-23T23:36:27.906Z,6.30
2023-04-23T23:38:56.102Z,6.78
2023-04-23T23:41:24.275Z,5.45
2023-04-23T23:43:53.269Z,7.53
2023-04-23T23:46:22.686Z,6.28
2023-04-23T23:48:51.345Z,6.28
2023-04-23T23:51:19.794Z,5.80
2023-04-23T23:53:48.022Z,6.35
2023-04-23T23:56:16.272Z,5.80
2023-04-23T23:58:44.525Z,5.82
